sensor_id;sensor_type;location;lat;lon;timestamp;temperature;humidity
46730;DHT22;32476;50.002;11.854;2023-02-13T00:00:33;0.40;99.90
46730;DHT22;32476;50.002;11.854;2023-02-13T00:03:00;0.40;99.90
46730;DHT22;32476;50.002;11.854;2023-02-13T00:05:27;0.40;99.90
46730;DHT22;32476;50.002;11.854;2023-02-13T00:07:53;0.40;99.90
46730;DHT22;32476;50.002;11.854;2023-02-13T00:10:19;0.40;99.90
46730;DHT22;32476;50.002;11.854;2023-02-13T00:12:47;0.40;99.90
46730;DHT22;32476;50.002;11.854;2023-02-13T00:15:13;0.40;99.90
46730;DHT22;32476;50.002;11.854;2023-02-13T00:17:39;0.50;99.90
46730;DHT22;32476;50.002;11.854;2023-02-13T00:20:07;0.50;99.90
46730;DHT22;32476;50.002;11.854;2023-02-13T00:22:38;0.50;99.90
46730;DHT22;32476;50.002;11.854;2023-02-13T00:25:06;0.50;99.90
46730;DHT22;32476;50.002;11.854;2023-02-13T00:27:33;0.50;99.90
46730;DHT22;32476;50.002;11.854;2023-02-13T00:29:59;0.50;99.90
46730;DHT22;32476;50.002;11.854;2023-02-13T00:32:26;0.50;99.90
46730;DHT22;32476;50.002;11.854;2023-02-13T00:34:52;0.50;99.90
46730;DHT22;32476;50.002;11.854;2023-02-13T00:37:18;0.50;99.90
46730;DHT22;32476;50.002;11.854;2023-02-13T00:39:45;0.50;99.90
46730;DHT22;32476;50.002;11.854;2023-02-13T00:42:11;0.40;99.90
46730;DHT22;32476;50.002;11.854;2023-02-13T00:44:37;0.40;99.90
46730;DHT22;32476;50.002;11.854;2023-02-13T00:47:04;0.40;99.90
46730;DHT22;32476;50.002;11.854;2023-02-13T00:49:30;0.30;99.90
46730;DHT22;32476;50.002;11.854;2023-02-13T00:51:56;0.30;99.90
46730;DHT22;32476;50.002;11.854;2023-02-13T00:54:24;0.20;99.90
46730;DHT22;32476;50.002;11.854;2023-02-13T00:56:50;0.10;99.90
46730;DHT22;32476;50.002;11.854;2023-02-13T00:59:16;0.00;99.90
46730;DHT22;32476;50.002;11.854;2023-02-13T01:01:44;-0.10;99.90
46730;DHT22;32476;50.002;11.854;2023-02-13T01:04:10;-0.20;99.90
46730;DHT22;32476;50.002;11.854;2023-02-13T01:06:36;-0.30;99.90
46730;DHT22;32476;50.002;11.854;2023-02-13T01:09:03;-0.30;99.90
46730;DHT22;32476;50.002;11.854;2023-02-13T01:11:29;-0.20;99.90
46730;DHT22;32476;50.002;11.854;2023-02-13T01:13:56;-0.20;99.90
46730;DHT22;32476;50.002;11.854;2023-02-13T01:16:23;-0.20;99.90
46730;DHT22;32476;50.002;11.854;2023-02-13T01:18:49;-0.30;99.90
46730;DHT22;32476;50.002;11.854;2023-02-13T01:21:20;-0.50;99.90
46730;DHT22;32476;50.002;11.854;2023-02-13T01:23:49;-0.50;99.90
46730;DHT22;32476;50.002;11.854;2023-02-13T01:26:19;-0.50;99.90
46730;DHT22;32476;50.002;11.854;2023-02-13T01:28:47;-0.60;99.90
46730;DHT22;32476;50.002;11.854;2023-02-13T01:31:14;-0.60;99.90
46730;DHT22;32476;50.002;11.854;2023-02-13T01:33:40;-0.60;99.90
46730;DHT22;32476;50.002;11.854;2023-02-13T01:36:08;-0.70;99.90
46730;DHT22;32476;50.002;11.854;2023-02-13T01:38:36;-0.70;99.90
46730;DHT22;32476;50.002;11.854;2023-02-13T01:41:03;-0.60;99.90
46730;DHT22;32476;50.002;11.854;2023-02-13T01:43:43;-0.70;99.90
46730;DHT22;32476;50.002;11.854;2023-02-13T01:46:38;-0.70;99.90
46730;DHT22;32476;50.002;11.854;2023-02-13T01:49:18;-0.70;99.90
46730;DHT22;32476;50.002;11.854;2023-02-13T01:51:48;-0.80;99.90
46730;DHT22;32476;50.002;11.854;2023-02-13T01:54:21;-0.80;99.90
46730;DHT22;32476;50.002;11.854;2023-02-13T01:57:00;-0.80;99.90
46730;DHT22;32476;50.002;11.854;2023-02-13T01:59:40;-0.70;99.90
46730;DHT22;32476;50.002;11.854;2023-02-13T02:02:10;-0.50;99.90
46730;DHT22;32476;50.002;11.854;2023-02-13T02:04:39;-0.50;99.90
46730;DHT22;32476;50.002;11.854;2023-02-13T02:07:10;-0.60;99.90
46730;DHT22;32476;50.002;11.854;2023-02-13T02:09:51;-0.60;99.90
46730;DHT22;32476;50.002;11.854;2023-02-13T02:12:31;-0.70;99.90
46730;DHT22;32476;50.002;11.854;2023-02-13T02:15:04;-0.70;99.90
46730;DHT22;32476;50.002;11.854;2023-02-13T02:17:30;-0.80;99.90
46730;DHT22;32476;50.002;11.854;2023-02-13T02:29:08;-0.80;99.90
46730;DHT22;32476;50.002;11.854;2023-02-13T02:37:29;-0.90;99.90
46730;DHT22;32476;50.002;11.854;2023-02-13T02:40:09;-0.80;99.90
46730;DHT22;32476;50.002;11.854;2023-02-13T02:46:33;-0.80;99.90
46730;DHT22;32476;50.002;11.854;2023-02-13T02:49:09;-0.70;99.90
46730;DHT22;32476;50.002;11.854;2023-02-13T02:54:48;-0.70;99.90
46730;DHT22;32476;50.002;11.854;2023-02-13T02:57:44;-0.70;99.90
46730;DHT22;32476;50.002;11.854;2023-02-13T03:00:36;-0.80;99.90
46730;DHT22;32476;50.002;11.854;2023-02-13T03:03:25;-0.80;99.90
46730;DHT22;32476;50.002;11.854;2023-02-13T03:06:15;-0.80;99.90
46730;DHT22;32476;50.002;11.854;2023-02-13T03:08:52;-0.80;99.90
46730;DHT22;32476;50.002;11.854;2023-02-13T03:11:40;-0.60;99.90
46730;DHT22;32476;50.002;11.854;2023-02-13T03:14:27;-0.40;99.90
46730;DHT22;32476;50.002;11.854;2023-02-13T03:16:55;-0.30;99.90
46730;DHT22;32476;50.002;11.854;2023-02-13T03:19:54;-0.40;99.90
46730;DHT22;32476;50.002;11.854;2023-02-13T03:25:54;-0.30;99.90
46730;DHT22;32476;50.002;11.854;2023-02-13T03:28:52;-0.30;99.90
46730;DHT22;32476;50.002;11.854;2023-02-13T03:31:49;-0.30;99.90
46730;DHT22;32476;50.002;11.854;2023-02-13T03:34:30;-0.20;99.90
46730;DHT22;32476;50.002;11.854;2023-02-13T03:37:27;-0.20;99.90
46730;DHT22;32476;50.002;11.854;2023-02-13T03:40:20;-0.10;99.90
46730;DHT22;32476;50.002;11.854;2023-02-13T03:43:02;-0.20;99.90
46730;DHT22;32476;50.002;11.854;2023-02-13T03:45:38;-0.10;99.90
46730;DHT22;32476;50.002;11.854;2023-02-13T03:48:35;-0.10;99.90
46730;DHT22;32476;50.002;11.854;2023-02-13T03:51:26;0.00;99.90
46730;DHT22;32476;50.002;11.854;2023-02-13T03:53:59;-0.10;99.90
46730;DHT22;32476;50.002;11.854;2023-02-13T03:56:28;-0.20;99.90
46730;DHT22;32476;50.002;11.854;2023-02-13T03:59:25;-0.10;99.90
46730;DHT22;32476;50.002;11.854;2023-02-13T04:04:38;-0.10;99.90
46730;DHT22;32476;50.002;11.854;2023-02-13T04:07:09;-0.10;99.90
46730;DHT22;32476;50.002;11.854;2023-02-13T04:09:40;-0.20;99.90
46730;DHT22;32476;50.002;11.854;2023-02-13T04:18:18;-0.20;99.90
46730;DHT22;32476;50.002;11.854;2023-02-13T04:20:47;-0.10;99.90
46730;DHT22;32476;50.002;11.854;2023-02-13T04:23:14;-0.20;99.90
46730;DHT22;32476;50.002;11.854;2023-02-13T04:25:43;-0.20;99.90
46730;DHT22;32476;50.002;11.854;2023-02-13T04:28:12;-0.10;99.90
46730;DHT22;32476;50.002;11.854;2023-02-13T04:30:38;-0.20;99.90
46730;DHT22;32476;50.002;11.854;2023-02-13T04:33:04;-0.10;99.90
46730;DHT22;32476;50.002;11.854;2023-02-13T04:35:32;-0.10;99.90
46730;DHT22;32476;50.002;11.854;2023-02-13T04:37:58;-0.30;99.90
46730;DHT22;32476;50.002;11.854;2023-02-13T04:40:24;-0.20;99.90
46730;DHT22;32476;50.002;11.854;2023-02-13T04:42:51;-0.20;99.90
46730;DHT22;32476;50.002;11.854;2023-02-13T04:45:17;-0.20;99.90
46730;DHT22;32476;50.002;11.854;2023-02-13T04:47:52;-0.20;99.90
46730;DHT22;32476;50.002;11.854;2023-02-13T04:50:22;-0.20;99.90
46730;DHT22;32476;50.002;11.854;2023-02-13T04:52:56;-0.20;99.90
46730;DHT22;32476;50.002;11.854;2023-02-13T04:55:24;-0.10;99.90
46730;DHT22;32476;50.002;11.854;2023-02-13T04:57:53;-0.10;99.90
46730;DHT22;32476;50.002;11.854;2023-02-13T05:00:20;-0.10;99.90
46730;DHT22;32476;50.002;11.854;2023-02-13T05:03:05;0.00;99.90
46730;DHT22;32476;50.002;11.854;2023-02-13T05:05:33;-0.20;99.90
46730;DHT22;32476;50.002;11.854;2023-02-13T05:08:01;-0.10;99.90
46730;DHT22;32476;50.002;11.854;2023-02-13T05:10:27;-0.10;99.90
46730;DHT22;32476;50.002;11.854;2023-02-13T05:12:53;-0.20;99.90
46730;DHT22;32476;50.002;11.854;2023-02-13T05:15:21;-0.20;99.90
46730;DHT22;32476;50.002;11.854;2023-02-13T05:17:48;-0.20;99.90
46730;DHT22;32476;50.002;11.854;2023-02-13T05:20:14;-0.20;99.90
46730;DHT22;32476;50.002;11.854;2023-02-13T05:22:47;-0.20;99.90
46730;DHT22;32476;50.002;11.854;2023-02-13T05:25:34;-0.20;99.90
46730;DHT22;32476;50.002;11.854;2023-02-13T05:28:02;-0.20;99.90
46730;DHT22;32476;50.002;11.854;2023-02-13T05:30:29;-0.20;99.90
46730;DHT22;32476;50.002;11.854;2023-02-13T05:32:55;-0.30;99.90
46730;DHT22;32476;50.002;11.854;2023-02-13T05:35:23;-0.30;99.90
46730;DHT22;32476;50.002;11.854;2023-02-13T05:37:50;-0.30;99.90
46730;DHT22;32476;50.002;11.854;2023-02-13T05:40:16;-0.20;99.90
46730;DHT22;32476;50.002;11.854;2023-02-13T05:42:43;-0.20;99.90
46730;DHT22;32476;50.002;11.854;2023-02-13T05:45:09;-0.20;99.90
46730;DHT22;32476;50.002;11.854;2023-02-13T05:47:36;-0.20;99.90
46730;DHT22;32476;50.002;11.854;2023-02-13T05:50:04;-0.20;99.90
46730;DHT22;32476;50.002;11.854;2023-02-13T05:52:31;-0.20;99.90
46730;DHT22;32476;50.002;11.854;2023-02-13T05:54:57;-0.20;99.90
46730;DHT22;32476;50.002;11.854;2023-02-13T05:57:24;-0.20;99.90
46730;DHT22;32476;50.002;11.854;2023-02-13T05:59:50;-0.30;99.90
46730;DHT22;32476;50.002;11.854;2023-02-13T06:02:16;-0.50;99.90
46730;DHT22;32476;50.002;11.854;2023-02-13T06:04:44;-0.40;99.90
46730;DHT22;32476;50.002;11.854;2023-02-13T06:07:09;-0.30;99.90
46730;DHT22;32476;50.002;11.854;2023-02-13T06:09:35;-0.30;99.90
46730;DHT22;32476;50.002;11.854;2023-02-13T06:12:03;-0.30;99.90
46730;DHT22;32476;50.002;11.854;2023-02-13T06:14:29;-0.20;99.90
46730;DHT22;32476;50.002;11.854;2023-02-13T06:16:55;-0.20;99.90
46730;DHT22;32476;50.002;11.854;2023-02-13T06:19:22;-0.20;99.90
46730;DHT22;32476;50.002;11.854;2023-02-13T06:21:48;-0.20;99.90
46730;DHT22;32476;50.002;11.854;2023-02-13T06:24:14;-0.10;99.90
46730;DHT22;32476;50.002;11.854;2023-02-13T06:26:42;-0.10;99.90
46730;DHT22;32476;50.002;11.854;2023-02-13T06:29:08;-0.10;99.90
46730;DHT22;32476;50.002;11.854;2023-02-13T06:31:34;-0.10;99.90
46730;DHT22;32476;50.002;11.854;2023-02-13T06:34:01;-0.10;99.90
46730;DHT22;32476;50.002;11.854;2023-02-13T06:36:27;0.00;99.90
46730;DHT22;32476;50.002;11.854;2023-02-13T06:38:53;0.00;99.90
46730;DHT22;32476;50.002;11.854;2023-02-13T06:41:21;0.10;99.90
46730;DHT22;32476;50.002;11.854;2023-02-13T06:43:47;0.10;99.90
46730;DHT22;32476;50.002;11.854;2023-02-13T06:46:13;0.00;99.90
46730;DHT22;32476;50.002;11.854;2023-02-13T06:48:40;0.00;99.90
46730;DHT22;32476;50.002;11.854;2023-02-13T06:51:06;0.00;99.90
46730;DHT22;32476;50.002;11.854;2023-02-13T06:53:32;0.00;99.90
46730;DHT22;32476;50.002;11.854;2023-02-13T06:56:03;-0.10;99.90
46730;DHT22;32476;50.002;11.854;2023-02-13T06:58:32;0.00;99.90
46730;DHT22;32476;50.002;11.854;2023-02-13T07:01:00;0.10;99.90
46730;DHT22;32476;50.002;11.854;2023-02-13T07:03:26;0.10;99.90
46730;DHT22;32476;50.002;11.854;2023-02-13T07:05:52;0.20;99.90
46730;DHT22;32476;50.002;11.854;2023-02-13T07:08:19;0.30;99.90
46730;DHT22;32476;50.002;11.854;2023-02-13T07:10:45;0.20;99.90
46730;DHT22;32476;50.002;11.854;2023-02-13T07:13:11;0.10;99.90
46730;DHT22;32476;50.002;11.854;2023-02-13T07:15:39;0.10;99.90
46730;DHT22;32476;50.002;11.854;2023-02-13T07:18:05;0.20;99.90
46730;DHT22;32476;50.002;11.854;2023-02-13T07:20:31;0.20;99.90
46730;DHT22;32476;50.002;11.854;2023-02-13T07:23:01;0.20;99.90
46730;DHT22;32476;50.002;11.854;2023-02-13T07:25:29;0.20;99.90
46730;DHT22;32476;50.002;11.854;2023-02-13T07:28:00;0.30;99.90
46730;DHT22;32476;50.002;11.854;2023-02-13T07:30:29;0.40;99.90
46730;DHT22;32476;50.002;11.854;2023-02-13T07:33:03;0.40;99.90
46730;DHT22;32476;50.002;11.854;2023-02-13T07:35:31;0.40;99.90
46730;DHT22;32476;50.002;11.854;2023-02-13T07:37:57;0.50;99.90
46730;DHT22;32476;50.002;11.854;2023-02-13T07:40:25;0.50;99.90
46730;DHT22;32476;50.002;11.854;2023-02-13T07:42:52;0.40;99.90
46730;DHT22;32476;50.002;11.854;2023-02-13T07:45:18;0.50;99.90
46730;DHT22;32476;50.002;11.854;2023-02-13T07:47:44;0.50;99.90
46730;DHT22;32476;50.002;11.854;2023-02-13T07:50:11;0.50;99.90
46730;DHT22;32476;50.002;11.854;2023-02-13T07:52:37;0.60;99.90
46730;DHT22;32476;50.002;11.854;2023-02-13T07:55:04;0.60;99.90
46730;DHT22;32476;50.002;11.854;2023-02-13T07:57:32;0.50;99.90
46730;DHT22;32476;50.002;11.854;2023-02-13T07:59:58;0.40;99.90
46730;DHT22;32476;50.002;11.854;2023-02-13T08:02:24;0.30;99.90
46730;DHT22;32476;50.002;11.854;2023-02-13T08:04:52;0.30;99.90
46730;DHT22;32476;50.002;11.854;2023-02-13T08:07:18;0.30;99.90
46730;DHT22;32476;50.002;11.854;2023-02-13T08:09:44;0.40;99.90
46730;DHT22;32476;50.002;11.854;2023-02-13T08:12:34;0.50;99.90
46730;DHT22;32476;50.002;11.854;2023-02-13T08:15:00;0.60;99.90
46730;DHT22;32476;50.002;11.854;2023-02-13T08:17:26;0.70;99.90
46730;DHT22;32476;50.002;11.854;2023-02-13T08:19:54;0.70;99.90
46730;DHT22;32476;50.002;11.854;2023-02-13T08:22:20;0.90;99.90
46730;DHT22;32476;50.002;11.854;2023-02-13T08:24:45;1.00;99.90
46730;DHT22;32476;50.002;11.854;2023-02-13T08:27:14;1.10;99.90
46730;DHT22;32476;50.002;11.854;2023-02-13T08:29:40;1.30;99.90
46730;DHT22;32476;50.002;11.854;2023-02-13T08:32:07;1.40;99.90
46730;DHT22;32476;50.002;11.854;2023-02-13T08:34:34;1.40;99.90
46730;DHT22;32476;50.002;11.854;2023-02-13T08:37:01;1.60;99.90
46730;DHT22;32476;50.002;11.854;2023-02-13T08:39:27;1.70;99.90
46730;DHT22;32476;50.002;11.854;2023-02-13T08:41:55;1.80;99.90
46730;DHT22;32476;50.002;11.854;2023-02-13T08:44:21;1.90;99.90
46730;DHT22;32476;50.002;11.854;2023-02-13T08:46:46;2.20;99.90
46730;DHT22;32476;50.002;11.854;2023-02-13T08:49:14;2.30;99.90
46730;DHT22;32476;50.002;11.854;2023-02-13T08:51:40;2.40;99.90
46730;DHT22;32476;50.002;11.854;2023-02-13T08:54:06;2.50;99.90
46730;DHT22;32476;50.002;11.854;2023-02-13T08:56:33;2.60;99.90
46730;DHT22;32476;50.002;11.854;2023-02-13T08:58:59;2.80;99.90
46730;DHT22;32476;50.002;11.854;2023-02-13T09:01:25;2.90;99.90
46730;DHT22;32476;50.002;11.854;2023-02-13T09:03:54;3.00;99.90
46730;DHT22;32476;50.002;11.854;2023-02-13T09:06:20;3.20;99.90
46730;DHT22;32476;50.002;11.854;2023-02-13T09:08:46;3.30;99.90
46730;DHT22;32476;50.002;11.854;2023-02-13T09:11:14;3.40;99.90
46730;DHT22;32476;50.002;11.854;2023-02-13T09:13:40;3.60;99.90
46730;DHT22;32476;50.002;11.854;2023-02-13T09:16:06;3.70;99.90
46730;DHT22;32476;50.002;11.854;2023-02-13T09:18:34;3.90;99.90
46730;DHT22;32476;50.002;11.854;2023-02-13T09:21:06;4.10;99.90
46730;DHT22;32476;50.002;11.854;2023-02-13T09:23:37;4.20;99.90
46730;DHT22;32476;50.002;11.854;2023-02-13T09:26:06;4.40;99.90
46730;DHT22;32476;50.002;11.854;2023-02-13T09:28:40;4.60;99.90
46730;DHT22;32476;50.002;11.854;2023-02-13T09:31:15;4.80;99.90
46730;DHT22;32476;50.002;11.854;2023-02-13T09:33:47;4.80;99.90
46730;DHT22;32476;50.002;11.854;2023-02-13T09:36:17;5.00;99.90
46730;DHT22;32476;50.002;11.854;2023-02-13T09:38:47;5.20;99.90
46730;DHT22;32476;50.002;11.854;2023-02-13T09:41:29;5.30;99.90
46730;DHT22;32476;50.002;11.854;2023-02-13T09:44:01;5.50;99.90
46730;DHT22;32476;50.002;11.854;2023-02-13T09:49:13;5.60;99.90
46730;DHT22;32476;50.002;11.854;2023-02-13T09:51:43;5.80;99.90
46730;DHT22;32476;50.002;11.854;2023-02-13T09:54:14;5.90;99.90
46730;DHT22;32476;50.002;11.854;2023-02-13T09:59:49;6.10;99.90
46730;DHT22;32476;50.002;11.854;2023-02-13T10:05:43;5.80;99.90
46730;DHT22;32476;50.002;11.854;2023-02-13T10:09:09;5.90;99.90
46730;DHT22;32476;50.002;11.854;2023-02-13T10:14:44;6.30;99.90
46730;DHT22;32476;50.002;11.854;2023-02-13T10:17:43;6.30;99.90
46730;DHT22;32476;50.002;11.854;2023-02-13T10:23:21;6.50;99.90
46730;DHT22;32476;50.002;11.854;2023-02-13T10:25:59;6.50;99.90
46730;DHT22;32476;50.002;11.854;2023-02-13T10:28:39;6.50;99.90
46730;DHT22;32476;50.002;11.854;2023-02-13T10:31:14;6.50;99.90
46730;DHT22;32476;50.002;11.854;2023-02-13T10:33:52;6.70;99.90
46730;DHT22;32476;50.002;11.854;2023-02-13T10:36:43;6.80;99.90
46730;DHT22;32476;50.002;11.854;2023-02-13T10:42:37;6.90;99.90
46730;DHT22;32476;50.002;11.854;2023-02-13T10:45:35;6.80;99.90
46730;DHT22;32476;50.002;11.854;2023-02-13T10:48:33;6.70;99.90
46730;DHT22;32476;50.002;11.854;2023-02-13T10:51:18;7.10;99.90
46730;DHT22;32476;50.002;11.854;2023-02-13T10:54:14;7.00;99.90
46730;DHT22;32476;50.002;11.854;2023-02-13T10:56:56;6.90;99.90
46730;DHT22;32476;50.002;11.854;2023-02-13T10:59:44;7.00;99.90
46730;DHT22;32476;50.002;11.854;2023-02-13T11:02:29;7.00;99.90
46730;DHT22;32476;50.002;11.854;2023-02-13T11:05:24;7.00;99.90
46730;DHT22;32476;50.002;11.854;2023-02-13T11:07:54;6.90;99.90
46730;DHT22;32476;50.002;11.854;2023-02-13T11:10:23;6.80;99.90
46730;DHT22;32476;50.002;11.854;2023-02-13T11:12:50;6.80;99.90
46730;DHT22;32476;50.002;11.854;2023-02-13T11:17:59;6.90;99.90
46730;DHT22;32476;50.002;11.854;2023-02-13T11:20:34;6.70;99.90
46730;DHT22;32476;50.002;11.854;2023-02-13T11:26:37;6.80;99.90
46730;DHT22;32476;50.002;11.854;2023-02-13T11:29:13;6.70;99.90
46730;DHT22;32476;50.002;11.854;2023-02-13T11:31:43;6.80;99.90
46730;DHT22;32476;50.002;11.854;2023-02-13T11:34:35;6.70;99.90
46730;DHT22;32476;50.002;11.854;2023-02-13T11:39:48;6.90;99.90
46730;DHT22;32476;50.002;11.854;2023-02-13T11:42:29;7.00;99.90
46730;DHT22;32476;50.002;11.854;2023-02-13T11:45:00;7.00;99.90
46730;DHT22;32476;50.002;11.854;2023-02-13T11:50:29;7.20;99.90
46730;DHT22;32476;50.002;11.854;2023-02-13T11:53:22;7.30;99.90
46730;DHT22;32476;50.002;11.854;2023-02-13T11:56:12;7.10;99.90
46730;DHT22;32476;50.002;11.854;2023-02-13T11:58:41;7.00;99.90
46730;DHT22;32476;50.002;11.854;2023-02-13T12:01:22;7.00;99.90
46730;DHT22;32476;50.002;11.854;2023-02-13T12:04:01;7.00;99.90
46730;DHT22;32476;50.002;11.854;2023-02-13T12:06:31;6.80;99.90
46730;DHT22;32476;50.002;11.854;2023-02-13T12:09:13;6.80;99.90
46730;DHT22;32476;50.002;11.854;2023-02-13T12:11:44;6.70;99.90
46730;DHT22;32476;50.002;11.854;2023-02-13T12:14:21;6.70;99.90
46730;DHT22;32476;50.002;11.854;2023-02-13T12:17:03;6.70;99.90
46730;DHT22;32476;50.002;11.854;2023-02-13T12:25:45;6.80;99.90
46730;DHT22;32476;50.002;11.854;2023-02-13T12:43:35;7.00;99.90
46730;DHT22;32476;50.002;11.854;2023-02-13T12:46:27;7.00;99.90
46730;DHT22;32476;50.002;11.854;2023-02-13T12:49:19;7.00;99.90
46730;DHT22;32476;50.002;11.854;2023-02-13T12:55:01;6.80;99.90
46730;DHT22;32476;50.002;11.854;2023-02-13T13:04:18;7.20;99.90
46730;DHT22;32476;50.002;11.854;2023-02-13T13:10:37;7.90;99.90
46730;DHT22;32476;50.002;11.854;2023-02-13T13:13:37;8.20;99.90
46730;DHT22;32476;50.002;11.854;2023-02-13T13:22:12;8.80;99.90
46730;DHT22;32476;50.002;11.854;2023-02-13T13:24:56;9.20;99.90
46730;DHT22;32476;50.002;11.854;2023-02-13T13:27:46;9.10;99.90
46730;DHT22;32476;50.002;11.854;2023-02-13T13:30:27;9.20;99.90
46730;DHT22;32476;50.002;11.854;2023-02-13T13:33:15;8.50;99.90
46730;DHT22;32476;50.002;11.854;2023-02-13T13:41:37;6.80;99.90
46730;DHT22;32476;50.002;11.854;2023-02-13T13:47:47;6.90;99.90
46730;DHT22;32476;50.002;11.854;2023-02-13T13:50:39;7.20;99.90
46730;DHT22;32476;50.002;11.854;2023-02-13T13:58:33;7.80;99.90
46730;DHT22;32476;50.002;11.854;2023-02-13T14:01:22;7.80;99.90
46730;DHT22;32476;50.002;11.854;2023-02-13T14:04:00;8.10;99.90
46730;DHT22;32476;50.002;11.854;2023-02-13T14:09:39;8.50;99.90
46730;DHT22;32476;50.002;11.854;2023-02-13T14:14:52;9.20;99.90
46730;DHT22;32476;50.002;11.854;2023-02-13T14:20:41;9.50;99.90
46730;DHT22;32476;50.002;11.854;2023-02-13T14:23:23;9.30;99.90
46730;DHT22;32476;50.002;11.854;2023-02-13T14:31:26;8.50;99.90
46730;DHT22;32476;50.002;11.854;2023-02-13T14:33:55;8.70;99.90
46730;DHT22;32476;50.002;11.854;2023-02-13T14:37:04;8.70;99.90
46730;DHT22;32476;50.002;11.854;2023-02-13T14:43:15;8.80;99.90
46730;DHT22;32476;50.002;11.854;2023-02-13T14:46:05;8.50;99.90
46730;DHT22;32476;50.002;11.854;2023-02-13T14:48:40;8.40;99.90
46730;DHT22;32476;50.002;11.854;2023-02-13T14:52:02;8.20;99.90
46730;DHT22;32476;50.002;11.854;2023-02-13T14:57:27;7.80;99.90
46730;DHT22;32476;50.002;11.854;2023-02-13T15:00:06;7.90;99.90
46730;DHT22;32476;50.002;11.854;2023-02-13T15:02:46;7.70;99.90
46730;DHT22;32476;50.002;11.854;2023-02-13T15:05:18;7.40;99.90
46730;DHT22;32476;50.002;11.854;2023-02-13T15:08:19;6.90;99.90
46730;DHT22;32476;50.002;11.854;2023-02-13T15:10:47;6.90;99.90
46730;DHT22;32476;50.002;11.854;2023-02-13T15:15:55;6.80;99.90
46730;DHT22;32476;50.002;11.854;2023-02-13T15:18:26;6.90;99.90
46730;DHT22;32476;50.002;11.854;2023-02-13T15:20:56;7.10;99.90
46730;DHT22;32476;50.002;11.854;2023-02-13T15:23:27;7.20;99.90
46730;DHT22;32476;50.002;11.854;2023-02-13T15:26:04;7.20;99.90
46730;DHT22;32476;50.002;11.854;2023-02-13T15:28:33;7.00;99.90
46730;DHT22;32476;50.002;11.854;2023-02-13T15:31:16;7.10;99.90
46730;DHT22;32476;50.002;11.854;2023-02-13T15:33:50;7.30;99.90
46730;DHT22;32476;50.002;11.854;2023-02-13T15:36:21;7.20;99.90
46730;DHT22;32476;50.002;11.854;2023-02-13T15:38:58;7.20;99.90
46730;DHT22;32476;50.002;11.854;2023-02-13T15:41:32;7.10;99.90
46730;DHT22;32476;50.002;11.854;2023-02-13T15:44:00;7.10;99.90
46730;DHT22;32476;50.002;11.854;2023-02-13T15:46:31;7.00;99.90
46730;DHT22;32476;50.002;11.854;2023-02-13T15:49:03;6.80;99.90
46730;DHT22;32476;50.002;11.854;2023-02-13T15:51:32;6.60;99.90
46730;DHT22;32476;50.002;11.854;2023-02-13T15:56:33;6.20;99.90
46730;DHT22;32476;50.002;11.854;2023-02-13T15:59:00;6.20;99.90
46730;DHT22;32476;50.002;11.854;2023-02-13T16:01:27;5.80;99.90
46730;DHT22;32476;50.002;11.854;2023-02-13T16:04:04;5.70;99.90
46730;DHT22;32476;50.002;11.854;2023-02-13T16:06:32;5.50;99.90
46730;DHT22;32476;50.002;11.854;2023-02-13T16:09:00;5.40;99.90
46730;DHT22;32476;50.002;11.854;2023-02-13T16:11:38;5.20;99.90
46730;DHT22;32476;50.002;11.854;2023-02-13T16:14:23;5.00;99.90
46730;DHT22;32476;50.002;11.854;2023-02-13T16:16:56;4.60;99.90
46730;DHT22;32476;50.002;11.854;2023-02-13T16:19:50;4.40;99.90
46730;DHT22;32476;50.002;11.854;2023-02-13T16:22:33;4.10;99.90
46730;DHT22;32476;50.002;11.854;2023-02-13T16:27:43;3.50;99.90
46730;DHT22;32476;50.002;11.854;2023-02-13T16:32:48;3.20;99.90
46730;DHT22;32476;50.002;11.854;2023-02-13T16:35:27;3.10;99.90
46730;DHT22;32476;50.002;11.854;2023-02-13T16:37:59;2.90;99.90
46730;DHT22;32476;50.002;11.854;2023-02-13T16:40:40;2.80;99.90
46730;DHT22;32476;50.002;11.854;2023-02-13T16:46:28;2.50;99.90
46730;DHT22;32476;50.002;11.854;2023-02-13T16:54:02;2.20;99.90
46730;DHT22;32476;50.002;11.854;2023-02-13T16:56:49;2.20;99.90
46730;DHT22;32476;50.002;11.854;2023-02-13T16:59:41;2.10;99.90
46730;DHT22;32476;50.002;11.854;2023-02-13T17:02:19;1.90;99.90
46730;DHT22;32476;50.002;11.854;2023-02-13T17:07:47;1.60;99.90
46730;DHT22;32476;50.002;11.854;2023-02-13T17:10:24;1.50;99.90
46730;DHT22;32476;50.002;11.854;2023-02-13T17:12:56;1.40;99.90
46730;DHT22;32476;50.002;11.854;2023-02-13T17:15:26;1.40;99.90
46730;DHT22;32476;50.002;11.854;2023-02-13T17:17:58;1.40;99.90
46730;DHT22;32476;50.002;11.854;2023-02-13T17:20:33;1.30;99.90
46730;DHT22;32476;50.002;11.854;2023-02-13T17:23:04;1.30;99.90
46730;DHT22;32476;50.002;11.854;2023-02-13T17:25:33;1.40;99.90
46730;DHT22;32476;50.002;11.854;2023-02-13T17:28:14;1.30;99.90
46730;DHT22;32476;50.002;11.854;2023-02-13T17:30:42;1.30;99.90
46730;DHT22;32476;50.002;11.854;2023-02-13T17:33:20;1.30;99.90
46730;DHT22;32476;50.002;11.854;2023-02-13T17:35:50;1.30;99.90
46730;DHT22;32476;50.002;11.854;2023-02-13T17:38:19;1.20;99.90
46730;DHT22;32476;50.002;11.854;2023-02-13T17:40:46;1.20;99.90
46730;DHT22;32476;50.002;11.854;2023-02-13T17:43:14;1.20;99.90
46730;DHT22;32476;50.002;11.854;2023-02-13T17:45:42;1.10;99.90
46730;DHT22;32476;50.002;11.854;2023-02-13T17:48:09;0.90;99.90
46730;DHT22;32476;50.002;11.854;2023-02-13T17:50:35;0.80;99.90
46730;DHT22;32476;50.002;11.854;2023-02-13T17:53:06;0.90;99.90
46730;DHT22;32476;50.002;11.854;2023-02-13T17:55:33;0.80;99.90
46730;DHT22;32476;50.002;11.854;2023-02-13T17:58:00;0.80;99.90
46730;DHT22;32476;50.002;11.854;2023-02-13T18:00:29;0.70;99.90
46730;DHT22;32476;50.002;11.854;2023-02-13T18:02:59;0.60;99.90
46730;DHT22;32476;50.002;11.854;2023-02-13T18:05:27;0.60;99.90
46730;DHT22;32476;50.002;11.854;2023-02-13T18:07:54;0.50;99.90
46730;DHT22;32476;50.002;11.854;2023-02-13T18:10:23;0.40;99.90
46730;DHT22;32476;50.002;11.854;2023-02-13T18:12:53;0.40;99.90
46730;DHT22;32476;50.002;11.854;2023-02-13T18:15:21;0.50;99.90
46730;DHT22;32476;50.002;11.854;2023-02-13T18:17:47;0.60;99.90
46730;DHT22;32476;50.002;11.854;2023-02-13T18:20:17;0.60;99.90
46730;DHT22;32476;50.002;11.854;2023-02-13T18:22:45;0.60;99.90
46730;DHT22;32476;50.002;11.854;2023-02-13T18:25:12;0.50;99.90
46730;DHT22;32476;50.002;11.854;2023-02-13T18:27:39;0.40;99.90
46730;DHT22;32476;50.002;11.854;2023-02-13T18:30:06;0.40;99.90
46730;DHT22;32476;50.002;11.854;2023-02-13T18:32:33;0.30;99.90
46730;DHT22;32476;50.002;11.854;2023-02-13T18:35:00;0.20;99.90
46730;DHT22;32476;50.002;11.854;2023-02-13T18:37:27;0.20;99.90
46730;DHT22;32476;50.002;11.854;2023-02-13T18:39:55;0.20;99.90
46730;DHT22;32476;50.002;11.854;2023-02-13T18:42:23;0.20;99.90